sensor_id;sensor_type;location;lat;lon;timestamp;P1;durP1;ratioP1;P2;durP2;ratioP2
6862;SDS011;3470;48.738;9.616;2023-04-07T00:01:42;7.07;;;5.53;;
6862;SDS011;3470;48.738;9.616;2023-04-07T00:04:07;7.23;;;5.90;;
6862;SDS011;3470;48.738;9.616;2023-04-07T00:06:33;6.30;;;5.40;;
6862;SDS011;3470;48.738;9.616;2023-04-07T00:08:59;7.90;;;5.60;;
6862;SDS011;3470;48.738;9.616;2023-04-07T00:11:24;7.00;;;5.40;;
6862;SDS011;3470;48.738;9.616;2023-04-07T00:13:50;7.90;;;5.90;;
6862;SDS011;3470;48.738;9.616;2023-04-07T00:16:16;6.20;;;5.60;;
6862;SDS011;3470;48.738;9.616;2023-04-07T00:18:41;7.70;;;6.03;;
6862;SDS011;3470;48.738;9.616;2023-04-07T00:21:07;6.93;;;5.83;;
6862;SDS011;3470;48.738;9.616;2023-04-07T00:23:32;7.77;;;6.20;;
6862;SDS011;3470;48.738;9.616;2023-04-07T00:25:58;8.97;;;6.53;;
6862;SDS011;3470;48.738;9.616;2023-04-07T00:28:24;7.80;;;6.00;;
6862;SDS011;3470;48.738;9.616;2023-04-07T00:30:50;8.03;;;6.23;;
6862;SDS011;3470;48.738;9.616;2023-04-07T00:33:16;7.73;;;6.53;;
6862;SDS011;3470;48.738;9.616;2023-04-07T00:35:41;11.60;;;7.30;;
6862;SDS011;3470;48.738;9.616;2023-04-07T00:38:07;9.93;;;6.83;;
6862;SDS011;3470;48.738;9.616;2023-04-07T00:40:32;8.30;;;7.07;;
6862;SDS011;3470;48.738;9.616;2023-04-07T00:42:58;8.57;;;7.13;;
6862;SDS011;3470;48.738;9.616;2023-04-07T00:45:23;10.13;;;6.73;;
6862;SDS011;3470;48.738;9.616;2023-04-07T00:47:49;10.33;;;7.50;;
6862;SDS011;3470;48.738;9.616;2023-04-07T00:50:15;10.57;;;7.73;;
6862;SDS011;3470;48.738;9.616;2023-04-07T00:52:42;8.67;;;7.53;;
6862;SDS011;3470;48.738;9.616;2023-04-07T00:55:08;10.43;;;7.80;;
6862;SDS011;3470;48.738;9.616;2023-04-07T00:57:33;11.17;;;7.87;;
6862;SDS011;3470;48.738;9.616;2023-04-07T00:59:59;9.63;;;8.07;;
6862;SDS011;3470;48.738;9.616;2023-04-07T01:02:31;9.80;;;8.27;;
6862;SDS011;3470;48.738;9.616;2023-04-07T01:05:04;11.63;;;7.97;;
6862;SDS011;3470;48.738;9.616;2023-04-07T01:10:56;13.60;;;8.33;;
6862;SDS011;3470;48.738;9.616;2023-04-07T01:13:37;13.77;;;9.53;;
6862;SDS011;3470;48.738;9.616;2023-04-07T01:16:34;12.27;;;9.13;;
6862;SDS011;3470;48.738;9.616;2023-04-07T01:19:07;12.30;;;9.00;;
6862;SDS011;3470;48.738;9.616;2023-04-07T01:21:52;13.63;;;9.30;;
6862;SDS011;3470;48.738;9.616;2023-04-07T01:24:28;13.37;;;8.90;;
6862;SDS011;3470;48.738;9.616;2023-04-07T01:30:21;12.90;;;8.80;;
6862;SDS011;3470;48.738;9.616;2023-04-07T01:32:49;12.73;;;9.80;;
6862;SDS011;3470;48.738;9.616;2023-04-07T01:35:17;11.70;;;9.77;;
6862;SDS011;3470;48.738;9.616;2023-04-07T01:37:43;13.97;;;9.67;;
6862;SDS011;3470;48.738;9.616;2023-04-07T01:40:12;12.63;;;9.20;;
6862;SDS011;3470;48.738;9.616;2023-04-07T01:42:38;13.97;;;10.30;;
6862;SDS011;3470;48.738;9.616;2023-04-07T01:45:06;13.27;;;9.57;;
6862;SDS011;3470;48.738;9.616;2023-04-07T01:47:33;13.67;;;10.13;;
6862;SDS011;3470;48.738;9.616;2023-04-07T01:50:01;15.87;;;9.77;;
6862;SDS011;3470;48.738;9.616;2023-04-07T01:52:31;17.10;;;10.37;;
6862;SDS011;3470;48.738;9.616;2023-04-07T01:54:58;12.53;;;10.17;;
6862;SDS011;3470;48.738;9.616;2023-04-07T01:57:24;14.57;;;10.97;;
6862;SDS011;3470;48.738;9.616;2023-04-07T01:59:50;12.47;;;10.27;;
6862;SDS011;3470;48.738;9.616;2023-04-07T02:02:16;15.83;;;10.83;;
6862;SDS011;3470;48.738;9.616;2023-04-07T02:07:30;15.60;;;10.23;;
6862;SDS011;3470;48.738;9.616;2023-04-07T02:10:03;14.07;;;10.43;;
6862;SDS011;3470;48.738;9.616;2023-04-07T02:12:30;13.57;;;11.00;;
6862;SDS011;3470;48.738;9.616;2023-04-07T02:14:59;14.50;;;11.20;;
6862;SDS011;3470;48.738;9.616;2023-04-07T02:17:25;16.77;;;10.80;;
6862;SDS011;3470;48.738;9.616;2023-04-07T02:19:52;14.57;;;11.13;;
6862;SDS011;3470;48.738;9.616;2023-04-07T02:22:19;14.47;;;11.03;;
6862;SDS011;3470;48.738;9.616;2023-04-07T02:24:45;17.00;;;11.77;;
6862;SDS011;3470;48.738;9.616;2023-04-07T02:27:11;14.73;;;11.37;;
6862;SDS011;3470;48.738;9.616;2023-04-07T02:29:37;13.80;;;10.93;;
6862;SDS011;3470;48.738;9.616;2023-04-07T02:32:02;14.03;;;10.47;;
6862;SDS011;3470;48.738;9.616;2023-04-07T02:34:28;15.87;;;11.77;;
6862;SDS011;3470;48.738;9.616;2023-04-07T02:36:53;16.40;;;11.70;;
6862;SDS011;3470;48.738;9.616;2023-04-07T02:39:19;13.80;;;10.67;;
6862;SDS011;3470;48.738;9.616;2023-04-07T02:41:44;14.13;;;11.27;;
6862;SDS011;3470;48.738;9.616;2023-04-07T02:44:10;13.87;;;10.50;;
6862;SDS011;3470;48.738;9.616;2023-04-07T02:46:35;13.60;;;11.00;;
6862;SDS011;3470;48.738;9.616;2023-04-07T02:49:01;14.10;;;11.23;;
6862;SDS011;3470;48.738;9.616;2023-04-07T02:51:27;13.93;;;11.50;;
6862;SDS011;3470;48.738;9.616;2023-04-07T02:53:53;16.33;;;10.63;;
6862;SDS011;3470;48.738;9.616;2023-04-07T02:56:18;14.03;;;11.00;;
6862;SDS011;3470;48.738;9.616;2023-04-07T02:58:44;16.07;;;11.13;;
6862;SDS011;3470;48.738;9.616;2023-04-07T03:01:09;15.60;;;11.57;;
6862;SDS011;3470;48.738;9.616;2023-04-07T03:03:35;14.97;;;11.27;;
6862;SDS011;3470;48.738;9.616;2023-04-07T03:06:01;14.40;;;11.27;;
6862;SDS011;3470;48.738;9.616;2023-04-07T03:08:26;15.37;;;11.27;;
6862;SDS011;3470;48.738;9.616;2023-04-07T03:10:52;16.43;;;11.23;;
6862;SDS011;3470;48.738;9.616;2023-04-07T03:13:17;14.87;;;11.27;;
6862;SDS011;3470;48.738;9.616;2023-04-07T03:15:44;14.80;;;11.57;;
6862;SDS011;3470;48.738;9.616;2023-04-07T03:18:11;14.80;;;11.40;;
6862;SDS011;3470;48.738;9.616;2023-04-07T03:20:37;15.47;;;11.23;;
6862;SDS011;3470;48.738;9.616;2023-04-07T03:23:03;13.10;;;10.80;;
6862;SDS011;3470;48.738;9.616;2023-04-07T03:25:28;14.27;;;10.97;;
6862;SDS011;3470;48.738;9.616;2023-04-07T03:27:54;14.13;;;11.33;;
6862;SDS011;3470;48.738;9.616;2023-04-07T03:30:19;15.27;;;11.10;;
6862;SDS011;3470;48.738;9.616;2023-04-07T03:32:45;16.97;;;11.63;;
6862;SDS011;3470;48.738;9.616;2023-04-07T03:35:11;16.53;;;11.60;;
6862;SDS011;3470;48.738;9.616;2023-04-07T03:37:36;15.37;;;11.63;;
6862;SDS011;3470;48.738;9.616;2023-04-07T03:40:02;14.93;;;12.03;;
6862;SDS011;3470;48.738;9.616;2023-04-07T03:42:28;13.73;;;10.77;;
6862;SDS011;3470;48.738;9.616;2023-04-07T03:44:53;15.97;;;11.80;;
6862;SDS011;3470;48.738;9.616;2023-04-07T03:47:19;14.43;;;11.23;;
6862;SDS011;3470;48.738;9.616;2023-04-07T03:49:44;17.07;;;12.30;;
6862;SDS011;3470;48.738;9.616;2023-04-07T03:52:10;16.07;;;11.20;;
6862;SDS011;3470;48.738;9.616;2023-04-07T03:54:35;15.97;;;11.57;;
6862;SDS011;3470;48.738;9.616;2023-04-07T03:57:01;17.43;;;11.60;;
6862;SDS011;3470;48.738;9.616;2023-04-07T03:59:27;18.73;;;12.40;;
6862;SDS011;3470;48.738;9.616;2023-04-07T04:01:52;16.87;;;12.40;;
6862;SDS011;3470;48.738;9.616;2023-04-07T04:04:18;16.00;;;11.27;;
6862;SDS011;3470;48.738;9.616;2023-04-07T04:06:43;15.07;;;11.77;;
6862;SDS011;3470;48.738;9.616;2023-04-07T04:09:09;14.83;;;12.27;;
6862;SDS011;3470;48.738;9.616;2023-04-07T04:11:35;16.30;;;11.93;;
6862;SDS011;3470;48.738;9.616;2023-04-07T04:14:02;15.43;;;12.17;;
6862;SDS011;3470;48.738;9.616;2023-04-07T04:16:27;15.93;;;12.67;;
6862;SDS011;3470;48.738;9.616;2023-04-07T04:18:53;16.97;;;13.43;;
6862;SDS011;3470;48.738;9.616;2023-04-07T04:21:18;15.57;;;11.90;;
6862;SDS011;3470;48.738;9.616;2023-04-07T04:23:44;16.20;;;11.57;;
6862;SDS011;3470;48.738;9.616;2023-04-07T04:26:09;17.50;;;12.77;;
6862;SDS011;3470;48.738;9.616;2023-04-07T04:28:35;17.10;;;13.33;;
6862;SDS011;3470;48.738;9.616;2023-04-07T04:31:01;16.83;;;12.23;;
6862;SDS011;3470;48.738;9.616;2023-04-07T04:33:26;15.27;;;12.47;;
6862;SDS011;3470;48.738;9.616;2023-04-07T04:35:52;15.53;;;12.73;;
6862;SDS011;3470;48.738;9.616;2023-04-07T04:38:17;15.93;;;12.37;;
6862;SDS011;3470;48.738;9.616;2023-04-07T04:40:43;15.50;;;11.80;;
6862;SDS011;3470;48.738;9.616;2023-04-07T04:43:09;17.47;;;12.73;;
6862;SDS011;3470;48.738;9.616;2023-04-07T04:45:34;18.20;;;13.03;;
6862;SDS011;3470;48.738;9.616;2023-04-07T04:48:00;19.10;;;13.47;;
6862;SDS011;3470;48.738;9.616;2023-04-07T04:50:26;19.63;;;13.27;;
6862;SDS011;3470;48.738;9.616;2023-04-07T04:52:51;20.30;;;13.67;;
6862;SDS011;3470;48.738;9.616;2023-04-07T04:55:17;20.53;;;14.97;;
6862;SDS011;3470;48.738;9.616;2023-04-07T04:57:43;21.93;;;14.17;;
6862;SDS011;3470;48.738;9.616;2023-04-07T05:00:08;22.33;;;14.33;;
6862;SDS011;3470;48.738;9.616;2023-04-07T05:02:35;22.10;;;14.57;;
6862;SDS011;3470;48.738;9.616;2023-04-07T05:05:01;19.03;;;13.93;;
6862;SDS011;3470;48.738;9.616;2023-04-07T05:07:26;19.53;;;13.80;;
6862;SDS011;3470;48.738;9.616;2023-04-07T05:09:52;20.60;;;14.73;;
6862;SDS011;3470;48.738;9.616;2023-04-07T05:12:17;19.73;;;14.57;;
6862;SDS011;3470;48.738;9.616;2023-04-07T05:14:43;20.83;;;14.40;;
6862;SDS011;3470;48.738;9.616;2023-04-07T05:17:08;19.03;;;14.30;;
6862;SDS011;3470;48.738;9.616;2023-04-07T05:19:34;22.17;;;15.47;;
6862;SDS011;3470;48.738;9.616;2023-04-07T05:22:00;19.03;;;14.80;;
6862;SDS011;3470;48.738;9.616;2023-04-07T05:24:27;21.50;;;15.33;;
6862;SDS011;3470;48.738;9.616;2023-04-07T05:26:53;19.17;;;14.23;;
6862;SDS011;3470;48.738;9.616;2023-04-07T05:29:20;18.07;;;13.53;;
6862;SDS011;3470;48.738;9.616;2023-04-07T05:31:46;20.80;;;15.23;;
6862;SDS011;3470;48.738;9.616;2023-04-07T05:34:11;18.03;;;13.73;;
6862;SDS011;3470;48.738;9.616;2023-04-07T05:36:37;17.60;;;14.13;;
6862;SDS011;3470;48.738;9.616;2023-04-07T05:39:02;18.47;;;13.43;;
6862;SDS011;3470;48.738;9.616;2023-04-07T05:41:28;18.80;;;14.07;;
6862;SDS011;3470;48.738;9.616;2023-04-07T05:43:54;17.87;;;13.87;;
6862;SDS011;3470;48.738;9.616;2023-04-07T05:46:20;20.70;;;14.27;;
6862;SDS011;3470;48.738;9.616;2023-04-07T05:48:45;17.83;;;13.33;;
6862;SDS011;3470;48.738;9.616;2023-04-07T05:51:11;18.73;;;13.93;;
6862;SDS011;3470;48.738;9.616;2023-04-07T05:53:36;17.57;;;13.23;;
6862;SDS011;3470;48.738;9.616;2023-04-07T05:56:02;18.67;;;13.50;;
6862;SDS011;3470;48.738;9.616;2023-04-07T05:58:27;17.63;;;14.07;;
6862;SDS011;3470;48.738;9.616;2023-04-07T06:00:53;16.33;;;13.47;;
6862;SDS011;3470;48.738;9.616;2023-04-07T06:03:18;19.03;;;13.90;;
6862;SDS011;3470;48.738;9.616;2023-04-07T06:05:45;18.80;;;13.73;;
6862;SDS011;3470;48.738;9.616;2023-04-07T06:08:10;17.07;;;12.90;;
6862;SDS011;3470;48.738;9.616;2023-04-07T06:10:36;17.40;;;13.70;;
6862;SDS011;3470;48.738;9.616;2023-04-07T06:13:02;17.63;;;13.27;;
6862;SDS011;3470;48.738;9.616;2023-04-07T06:15:27;14.63;;;11.83;;
6862;SDS011;3470;48.738;9.616;2023-04-07T06:17:53;17.37;;;13.20;;
6862;SDS011;3470;48.738;9.616;2023-04-07T06:20:18;16.17;;;12.77;;
6862;SDS011;3470;48.738;9.616;2023-04-07T06:22:46;17.60;;;13.07;;
6862;SDS011;3470;48.738;9.616;2023-04-07T06:25:12;15.73;;;12.20;;
6862;SDS011;3470;48.738;9.616;2023-04-07T06:27:38;16.20;;;11.77;;
6862;SDS011;3470;48.738;9.616;2023-04-07T06:30:03;17.17;;;13.17;;
6862;SDS011;3470;48.738;9.616;2023-04-07T06:32:29;18.20;;;13.33;;
6862;SDS011;3470;48.738;9.616;2023-04-07T06:34:55;15.70;;;12.33;;
6862;SDS011;3470;48.738;9.616;2023-04-07T06:37:21;17.73;;;12.80;;
6862;SDS011;3470;48.738;9.616;2023-04-07T06:39:49;19.13;;;13.77;;
6862;SDS011;3470;48.738;9.616;2023-04-07T06:42:14;13.80;;;11.97;;
6862;SDS011;3470;48.738;9.616;2023-04-07T06:44:40;15.93;;;12.47;;
6862;SDS011;3470;48.738;9.616;2023-04-07T06:47:05;14.90;;;11.87;;
6862;SDS011;3470;48.738;9.616;2023-04-07T06:49:31;15.87;;;12.73;;
6862;SDS011;3470;48.738;9.616;2023-04-07T06:51:56;15.20;;;12.77;;
6862;SDS011;3470;48.738;9.616;2023-04-07T06:54:22;15.40;;;11.97;;
6862;SDS011;3470;48.738;9.616;2023-04-07T06:56:48;13.70;;;11.93;;
6862;SDS011;3470;48.738;9.616;2023-04-07T06:59:14;13.67;;;11.50;;
6862;SDS011;3470;48.738;9.616;2023-04-07T07:01:40;11.67;;;10.43;;
6862;SDS011;3470;48.738;9.616;2023-04-07T07:04:06;14.03;;;11.67;;
6862;SDS011;3470;48.738;9.616;2023-04-07T07:06:31;12.73;;;10.97;;
6862;SDS011;3470;48.738;9.616;2023-04-07T07:08:57;12.63;;;10.73;;
6862;SDS011;3470;48.738;9.616;2023-04-07T07:11:24;12.87;;;10.90;;
6862;SDS011;3470;48.738;9.616;2023-04-07T07:13:50;13.27;;;11.00;;
6862;SDS011;3470;48.738;9.616;2023-04-07T07:16:15;13.70;;;10.83;;
6862;SDS011;3470;48.738;9.616;2023-04-07T07:18:41;14.33;;;11.20;;
6862;SDS011;3470;48.738;9.616;2023-04-07T07:21:07;12.07;;;9.93;;
6862;SDS011;3470;48.738;9.616;2023-04-07T07:23:32;12.10;;;10.80;;
6862;SDS011;3470;48.738;9.616;2023-04-07T07:25:58;12.37;;;10.67;;
6862;SDS011;3470;48.738;9.616;2023-04-07T07:28:24;11.80;;;10.57;;
6862;SDS011;3470;48.738;9.616;2023-04-07T07:30:50;12.63;;;10.57;;
6862;SDS011;3470;48.738;9.616;2023-04-07T07:33:15;13.60;;;12.20;;
6862;SDS011;3470;48.738;9.616;2023-04-07T07:35:41;12.97;;;10.93;;
6862;SDS011;3470;48.738;9.616;2023-04-07T07:38:07;13.60;;;10.77;;
6862;SDS011;3470;48.738;9.616;2023-04-07T07:40:32;14.03;;;11.33;;
6862;SDS011;3470;48.738;9.616;2023-04-07T07:43:01;11.77;;;10.57;;
6862;SDS011;3470;48.738;9.616;2023-04-07T07:45:26;10.17;;;9.00;;
6862;SDS011;3470;48.738;9.616;2023-04-07T07:47:52;11.50;;;8.60;;
6862;SDS011;3470;48.738;9.616;2023-04-07T07:50:18;9.47;;;8.30;;
6862;SDS011;3470;48.738;9.616;2023-04-07T07:52:43;8.53;;;7.43;;
6862;SDS011;3470;48.738;9.616;2023-04-07T07:55:09;8.53;;;7.70;;
6862;SDS011;3470;48.738;9.616;2023-04-07T07:57:35;7.45;;;6.75;;
6862;SDS011;3470;48.738;9.616;2023-04-07T08:00:01;7.65;;;6.90;;
6862;SDS011;3470;48.738;9.616;2023-04-07T08:02:28;7.15;;;6.45;;
6862;SDS011;3470;48.738;9.616;2023-04-07T08:04:56;6.63;;;6.03;;
6862;SDS011;3470;48.738;9.616;2023-04-07T08:07:22;6.68;;;6.07;;
6862;SDS011;3470;48.738;9.616;2023-04-07T08:09:47;6.80;;;6.10;;
6862;SDS011;3470;48.738;9.616;2023-04-07T08:12:13;7.82;;;6.32;;
6862;SDS011;3470;48.738;9.616;2023-04-07T08:14:39;6.28;;;5.68;;
6862;SDS011;3470;48.738;9.616;2023-04-07T08:17:05;6.10;;;5.50;;
6862;SDS011;3470;48.738;9.616;2023-04-07T08:19:30;7.10;;;6.40;;
6862;SDS011;3470;48.738;9.616;2023-04-07T08:21:56;6.80;;;6.20;;
6862;SDS011;3470;48.738;9.616;2023-04-07T08:24:21;7.45;;;5.50;;
6862;SDS011;3470;48.738;9.616;2023-04-07T08:26:47;6.55;;;5.95;;
6862;SDS011;3470;48.738;9.616;2023-04-07T08:29:13;6.68;;;6.05;;
6862;SDS011;3470;48.738;9.616;2023-04-07T08:31:39;7.43;;;6.82;;
6862;SDS011;3470;48.738;9.616;2023-04-07T08:34:05;11.50;;;7.43;;
6862;SDS011;3470;48.738;9.616;2023-04-07T08:36:31;5.88;;;5.28;;
6862;SDS011;3470;48.738;9.616;2023-04-07T08:38:56;5.70;;;5.20;;
6862;SDS011;3470;48.738;9.616;2023-04-07T08:41:28;7.97;;;7.38;;
6862;SDS011;3470;48.738;9.616;2023-04-07T08:43:58;5.55;;;5.05;;
6862;SDS011;3470;48.738;9.616;2023-04-07T08:46:25;6.85;;;5.28;;
6862;SDS011;3470;48.738;9.616;2023-04-07T08:48:52;5.78;;;5.28;;
6862;SDS011;3470;48.738;9.616;2023-04-07T08:51:26;5.72;;;5.22;;
6862;SDS011;3470;48.738;9.616;2023-04-07T08:53:53;6.15;;;5.60;;
6862;SDS011;3470;48.738;9.616;2023-04-07T08:56:25;6.30;;;5.47;;
6862;SDS011;3470;48.738;9.616;2023-04-07T08:58:51;5.13;;;4.63;;
6862;SDS011;3470;48.738;9.616;2023-04-07T09:01:18;6.30;;;5.43;;
6862;SDS011;3470;48.738;9.616;2023-04-07T09:03:45;5.90;;;5.30;;
6862;SDS011;3470;48.738;9.616;2023-04-07T09:06:12;6.20;;;5.60;;
6862;SDS011;3470;48.738;9.616;2023-04-07T09:08:38;6.47;;;5.60;;
6862;SDS011;3470;48.738;9.616;2023-04-07T09:11:04;6.40;;;5.75;;
6862;SDS011;3470;48.738;9.616;2023-04-07T09:13:30;5.82;;;5.25;;
6862;SDS011;3470;48.738;9.616;2023-04-07T09:15:56;6.38;;;5.28;;
6862;SDS011;3470;48.738;9.616;2023-04-07T09:18:23;6.32;;;5.70;;
6862;SDS011;3470;48.738;9.616;2023-04-07T09:20:56;5.82;;;5.22;;
6862;SDS011;3470;48.738;9.616;2023-04-07T09:26:22;5.43;;;4.87;;
6862;SDS011;3470;48.738;9.616;2023-04-07T09:28:48;5.90;;;5.07;;
6862;SDS011;3470;48.738;9.616;2023-04-07T09:34:26;7.67;;;5.13;;
6862;SDS011;3470;48.738;9.616;2023-04-07T09:36:53;6.77;;;4.77;;
6862;SDS011;3470;48.738;9.616;2023-04-07T09:39:19;6.40;;;5.03;;
6862;SDS011;3470;48.738;9.616;2023-04-07T09:41:45;5.77;;;5.20;;
6862;SDS011;3470;48.738;9.616;2023-04-07T09:44:11;5.97;;;4.47;;
6862;SDS011;3470;48.738;9.616;2023-04-07T09:46:47;5.20;;;4.70;;
6862;SDS011;3470;48.738;9.616;2023-04-07T09:49:23;4.60;;;4.20;;
6862;SDS011;3470;48.738;9.616;2023-04-07T09:51:56;6.53;;;5.13;;
6862;SDS011;3470;48.738;9.616;2023-04-07T09:54:57;5.90;;;4.37;;
6862;SDS011;3470;48.738;9.616;2023-04-07T09:57:16;5.03;;;4.22;;
6862;SDS011;3470;48.738;9.616;2023-04-07T09:59:43;4.82;;;4.28;;
6862;SDS011;3470;48.738;9.616;2023-04-07T10:02:09;5.07;;;3.83;;
6862;SDS011;3470;48.738;9.616;2023-04-07T10:04:36;6.30;;;4.40;;
6862;SDS011;3470;48.738;9.616;2023-04-07T10:07:03;7.30;;;5.17;;
6862;SDS011;3470;48.738;9.616;2023-04-07T10:09:29;6.37;;;4.80;;
6862;SDS011;3470;48.738;9.616;2023-04-07T10:11:55;6.00;;;5.17;;
6862;SDS011;3470;48.738;9.616;2023-04-07T10:14:25;6.87;;;5.07;;
6862;SDS011;3470;48.738;9.616;2023-04-07T10:16:52;5.80;;;5.17;;
6862;SDS011;3470;48.738;9.616;2023-04-07T10:19:18;5.60;;;4.93;;
6862;SDS011;3470;48.738;9.616;2023-04-07T10:21:45;5.53;;;4.97;;
6862;SDS011;3470;48.738;9.616;2023-04-07T10:26:53;6.33;;;5.07;;
6862;SDS011;3470;48.738;9.616;2023-04-07T10:29:23;6.67;;;4.67;;
6862;SDS011;3470;48.738;9.616;2023-04-07T10:31:50;5.30;;;4.80;;
6862;SDS011;3470;48.738;9.616;2023-04-07T10:34:16;5.15;;;4.60;;
6862;SDS011;3470;48.738;9.616;2023-04-07T10:37:11;6.13;;;4.72;;
6862;SDS011;3470;48.738;9.616;2023-04-07T10:39:38;5.88;;;5.00;;
6862;SDS011;3470;48.738;9.616;2023-04-07T10:42:04;5.28;;;4.78;;
6862;SDS011;3470;48.738;9.616;2023-04-07T10:47:06;6.35;;;4.22;;
6862;SDS011;3470;48.738;9.616;2023-04-07T10:49:32;5.93;;;4.30;;
6862;SDS011;3470;48.738;9.616;2023-04-07T10:54:37;4.30;;;3.90;;
6862;SDS011;3470;48.738;9.616;2023-04-07T10:57:11;5.53;;;4.25;;
6862;SDS011;3470;48.738;9.616;2023-04-07T10:59:39;6.65;;;4.35;;
6862;SDS011;3470;48.738;9.616;2023-04-07T11:04:51;4.95;;;4.20;;
6862;SDS011;3470;48.738;9.616;2023-04-07T11:07:16;4.70;;;4.22;;
6862;SDS011;3470;48.738;9.616;2023-04-07T11:09:43;6.18;;;3.60;;
6862;SDS011;3470;48.738;9.616;2023-04-07T11:12:21;5.82;;;3.97;;
6862;SDS011;3470;48.738;9.616;2023-04-07T11:14:47;5.80;;;4.10;;
6862;SDS011;3470;48.738;9.616;2023-04-07T11:17:13;5.10;;;3.60;;
6862;SDS011;3470;48.738;9.616;2023-04-07T11:19:53;4.25;;;3.85;;
6862;SDS011;3470;48.738;9.616;2023-04-07T11:22:19;4.85;;;4.10;;
6862;SDS011;3470;48.738;9.616;2023-04-07T11:24:45;3.97;;;3.50;;
6862;SDS011;3470;48.738;9.616;2023-04-07T11:27:11;5.22;;;3.22;;
6862;SDS011;3470;48.738;9.616;2023-04-07T11:29:37;4.88;;;3.20;;
6862;SDS011;3470;48.738;9.616;2023-04-07T11:32:03;4.47;;;3.53;;
6862;SDS011;3470;48.738;9.616;2023-04-07T11:34:30;3.85;;;3.22;;
6862;SDS011;3470;48.738;9.616;2023-04-07T11:36:57;9.52;;;4.22;;
6862;SDS011;3470;48.738;9.616;2023-04-07T11:39:42;4.40;;;3.33;;
6862;SDS011;3470;48.738;9.616;2023-04-07T11:42:10;4.68;;;3.13;;
6862;SDS011;3470;48.738;9.616;2023-04-07T11:44:43;5.22;;;4.13;;
6862;SDS011;3470;48.738;9.616;2023-04-07T11:47:09;5.03;;;3.28;;
6862;SDS011;3470;48.738;9.616;2023-04-07T11:49:35;5.97;;;3.30;;
6862;SDS011;3470;48.738;9.616;2023-04-07T11:52:09;4.95;;;3.75;;
6862;SDS011;3470;48.738;9.616;2023-04-07T11:54:41;4.63;;;3.72;;
6862;SDS011;3470;48.738;9.616;2023-04-07T11:57:08;4.65;;;4.03;;
6862;SDS011;3470;48.738;9.616;2023-04-07T11:59:36;4.90;;;4.22;;
6862;SDS011;3470;48.738;9.616;2023-04-07T12:02:02;5.78;;;3.95;;
6862;SDS011;3470;48.738;9.616;2023-04-07T12:04:28;4.80;;;4.25;;
6862;SDS011;3470;48.738;9.616;2023-04-07T12:06:55;3.97;;;3.60;;
6862;SDS011;3470;48.738;9.616;2023-04-07T12:09:35;4.10;;;3.70;;
6862;SDS011;3470;48.738;9.616;2023-04-07T12:12:02;3.85;;;3.40;;
6862;SDS011;3470;48.738;9.616;2023-04-07T12:14:30;4.00;;;3.47;;
6862;SDS011;3470;48.738;9.616;2023-04-07T12:16:56;6.45;;;4.30;;
6862;SDS011;3470;48.738;9.616;2023-04-07T12:19:24;4.60;;;3.58;;
6862;SDS011;3470;48.738;9.616;2023-04-07T12:21:50;4.13;;;3.50;;
6862;SDS011;3470;48.738;9.616;2023-04-07T12:24:16;4.55;;;3.42;;
6862;SDS011;3470;48.738;9.616;2023-04-07T12:26:42;3.58;;;2.90;;
6862;SDS011;3470;48.738;9.616;2023-04-07T12:29:07;3.53;;;2.55;;
6862;SDS011;3470;48.738;9.616;2023-04-07T12:31:33;4.53;;;2.78;;
6862;SDS011;3470;48.738;9.616;2023-04-07T12:33:59;3.70;;;2.38;;
6862;SDS011;3470;48.738;9.616;2023-04-07T12:36:25;4.32;;;3.05;;
6862;SDS011;3470;48.738;9.616;2023-04-07T12:38:54;6.03;;;3.10;;
6862;SDS011;3470;48.738;9.616;2023-04-07T12:41:20;3.90;;;2.72;;
6862;SDS011;3470;48.738;9.616;2023-04-07T12:43:46;3.97;;;2.22;;
6862;SDS011;3470;48.738;9.616;2023-04-07T12:46:12;3.50;;;2.90;;
6862;SDS011;3470;48.738;9.616;2023-04-07T12:48:38;5.15;;;2.83;;
6862;SDS011;3470;48.738;9.616;2023-04-07T12:51:03;4.38;;;2.95;;
6862;SDS011;3470;48.738;9.616;2023-04-07T12:53:29;5.15;;;2.90;;
6862;SDS011;3470;48.738;9.616;2023-04-07T12:55:55;3.25;;;2.40;;
6862;SDS011;3470;48.738;9.616;2023-04-07T12:58:21;3.42;;;3.13;;
6862;SDS011;3470;48.738;9.616;2023-04-07T13:00:47;3.25;;;2.90;;
6862;SDS011;3470;48.738;9.616;2023-04-07T13:03:12;3.40;;;2.80;;
6862;SDS011;3470;48.738;9.616;2023-04-07T13:05:38;3.33;;;2.92;;
6862;SDS011;3470;48.738;9.616;2023-04-07T13:08:04;5.50;;;3.13;;
6862;SDS011;3470;48.738;9.616;2023-04-07T13:10:30;4.65;;;3.50;;
6862;SDS011;3470;48.738;9.616;2023-04-07T13:12:58;5.35;;;3.75;;
6862;SDS011;3470;48.738;9.616;2023-04-07T13:15:24;3.88;;;3.35;;
6862;SDS011;3470;48.738;9.616;2023-04-07T13:17:50;4.43;;;3.30;;
6862;SDS011;3470;48.738;9.616;2023-04-07T13:20:16;3.40;;;3.10;;
6862;SDS011;3470;48.738;9.616;2023-04-07T13:22:41;4.47;;;3.20;;
6862;SDS011;3470;48.738;9.616;2023-04-07T13:25:07;4.00;;;3.10;;
6862;SDS011;3470;48.738;9.616;2023-04-07T13:27:33;3.57;;;2.90;;
6862;SDS011;3470;48.738;9.616;2023-04-07T13:29:58;3.80;;;3.23;;
6862;SDS011;3470;48.738;9.616;2023-04-07T13:32:24;3.17;;;2.83;;
6862;SDS011;3470;48.738;9.616;2023-04-07T13:34:50;4.87;;;3.50;;
6862;SDS011;3470;48.738;9.616;2023-04-07T13:37:16;5.00;;;2.80;;
6862;SDS011;3470;48.738;9.616;2023-04-07T13:39:43;4.23;;;2.90;;
6862;SDS011;3470;48.738;9.616;2023-04-07T13:42:09;4.67;;;2.90;;
6862;SDS011;3470;48.738;9.616;2023-04-07T13:44:35;4.30;;;3.17;;
6862;SDS011;3470;48.738;9.616;2023-04-07T13:47:04;6.05;;;3.15;;
6862;SDS011;3470;48.738;9.616;2023-04-07T13:49:29;3.22;;;2.70;;
6862;SDS011;3470;48.738;9.616;2023-04-07T13:51:55;2.70;;;2.50;;
6862;SDS011;3470;48.738;9.616;2023-04-07T13:54:20;2.70;;;2.50;;
6862;SDS011;3470;48.738;9.616;2023-04-07T13:56:49;4.50;;;2.88;;
6862;SDS011;3470;48.738;9.616;2023-04-07T13:59:15;3.85;;;2.88;;
6862;SDS011;3470;48.738;9.616;2023-04-07T14:01:40;5.28;;;2.97;;
6862;SDS011;3470;48.738;9.616;2023-04-07T14:04:06;4.15;;;2.40;;
6862;SDS011;3470;48.738;9.616;2023-04-07T14:06:32;4.22;;;2.63;;
6862;SDS011;3470;48.738;9.616;2023-04-07T14:09:00;3.50;;;2.90;;
6862;SDS011;3470;48.738;9.616;2023-04-07T14:11:25;4.23;;;2.77;;
6862;SDS011;3470;48.738;9.616;2023-04-07T14:13:51;4.60;;;3.43;;
6862;SDS011;3470;48.738;9.616;2023-04-07T14:16:20;6.17;;;3.10;;
6862;SDS011;3470;48.738;9.616;2023-04-07T14:18:46;3.17;;;2.50;;
6862;SDS011;3470;48.738;9.616;2023-04-07T14:21:13;4.03;;;2.73;;
6862;SDS011;3470;48.738;9.616;2023-04-07T14:23:39;3.40;;;2.63;;
6862;SDS011;3470;48.738;9.616;2023-04-07T14:26:08;3.97;;;3.00;;
6862;SDS011;3470;48.738;9.616;2023-04-07T14:28:35;4.50;;;2.60;;
6862;SDS011;3470;48.738;9.616;2023-04-07T14:31:01;3.27;;;2.60;;
6862;SDS011;3470;48.738;9.616;2023-04-07T14:33:26;6.03;;;2.87;;
6862;SDS011;3470;48.738;9.616;2023-04-07T14:35:52;8.03;;;2.67;;
6862;SDS011;3470;48.738;9.616;2023-04-07T14:38:17;7.73;;;3.27;;
6862;SDS011;3470;48.738;9.616;2023-04-07T14:40:48;6.53;;;3.30;;
6862;SDS011;3470;48.738;9.616;2023-04-07T14:43:13;6.40;;;3.17;;
6862;SDS011;3470;48.738;9.616;2023-04-07T14:45:39;6.80;;;3.00;;
6862;SDS011;3470;48.738;9.616;2023-04-07T14:48:05;5.33;;;3.70;;
6862;SDS011;3470;48.738;9.616;2023-04-07T14:50:31;7.90;;;4.23;;
6862;SDS011;3470;48.738;9.616;2023-04-07T14:52:58;6.60;;;4.00;;
6862;SDS011;3470;48.738;9.616;2023-04-07T14:55:24;4.60;;;3.67;;
6862;SDS011;3470;48.738;9.616;2023-04-07T14:57:50;5.87;;;3.60;;
6862;SDS011;3470;48.738;9.616;2023-04-07T15:00:15;5.30;;;3.10;;
6862;SDS011;3470;48.738;9.616;2023-04-07T15:02:41;3.10;;;2.80;;
6862;SDS011;3470;48.738;9.616;2023-04-07T15:05:07;2.60;;;2.40;;
6862;SDS011;3470;48.738;9.616;2023-04-07T15:07:33;3.13;;;2.60;;
6862;SDS011;3470;48.738;9.616;2023-04-07T15:09:59;2.73;;;2.53;;
6862;SDS011;3470;48.738;9.616;2023-04-07T15:12:24;3.83;;;2.50;;
6862;SDS011;3470;48.738;9.616;2023-04-07T15:14:52;3.93;;;2.73;;
6862;SDS011;3470;48.738;9.616;2023-04-07T15:17:17;3.30;;;2.30;;
6862;SDS011;3470;48.738;9.616;2023-04-07T15:19:44;3.00;;;2.30;;
6862;SDS011;3470;48.738;9.616;2023-04-07T15:22:09;2.30;;;2.00;;
6862;SDS011;3470;48.738;9.616;2023-04-07T15:24:35;2.10;;;1.90;;
6862;SDS011;3470;48.738;9.616;2023-04-07T15:27:00;3.43;;;2.10;;